Time;durP1;ratioP1;P1;durP2;ratioP2;P2;SDS_P1;SDS_P2;PMS_P1;PMS_P2;Temp;Humidity;BMP_temperature;BMP_pressure;BME280_temperature;BME280_humidity;BME280_pressure;Samples;Min_cycle;Max_cycle;Signal;HPM_P1;HPM_P2
2022/11/28 00:02:14;;;;;;;24.10;7.30;;;;;;;;;;6246662;23;20035;-64
2022/11/28 00:04:40;;;;;;;25.27;7.13;;;;;;;;;;6246495;23;20027;-64
2022/11/28 00:07:06;;;;;;;21.00;5.55;;;;;;;;;;6247106;23;20016;-64
2022/11/28 00:09:32;;;;;;;22.23;5.55;;;;;;;;;;6246858;23;20005;-64
2022/11/28 00:11:59;;;;;;;22.80;4.15;;;;;;;;;;6246806;23;20012;-64
2022/11/28 00:14:25;;;;;;;20.92;4.78;;;;;;;;;;6246391;23;20083;-64
2022/11/28 00:16:51;;;;;;;18.20;4.18;;;;;;;;;;6245307;23;20341;-64
2022/11/28 00:19:17;;;;;;;29.35;5.47;;;;;;;;;;6246810;23;20000;-64
2022/11/28 00:21:43;;;;;;;21.75;5.13;;;;;;;;;;6246919;23;20015;-64
2022/11/28 00:24:09;;;;;;;18.35;4.00;;;;;;;;;;6246650;23;20000;-64
2022/11/28 00:26:37;;;;;;;22.05;4.03;;;;;;;;;;6246335;23;20000;-64
2022/11/28 00:29:04;;;;;;;21.50;3.85;;;;;;;;;;6245338;23;20000;-64
2022/11/28 00:31:32;;;;;;;18.40;3.50;;;;;;;;;;6246936;23;20387;-64
2022/11/28 00:34:00;;;;;;;18.23;3.47;;;;;;;;;;6246696;23;20004;-64
2022/11/28 00:36:26;;;;;;;19.40;3.80;;;;;;;;;;6246552;22;20062;-64
2022/11/28 00:38:53;;;;;;;17.63;3.00;;;;;;;;;;6246760;23;20449;-64
2022/11/28 00:41:21;;;;;;;24.92;2.92;;;;;;;;;;6246108;23;20004;-64
2022/11/28 00:43:47;;;;;;;15.57;2.65;;;;;;;;;;6246366;23;20004;-64
2022/11/28 00:46:14;;;;;;;17.15;2.78;;;;;;;;;;6246307;23;20000;-64
2022/11/28 00:48:40;;;;;;;16.98;3.13;;;;;;;;;;6246414;23;19997;-64
2022/11/28 00:51:08;;;;;;;16.08;2.70;;;;;;;;;;6246454;23;20015;-64
2022/11/28 00:53:34;;;;;;;20.38;3.58;;;;;;;;;;6246018;23;20075;-64
2022/11/28 00:56:00;;;;;;;16.15;3.10;;;;;;;;;;6246072;23;20011;-64
2022/11/28 00:58:27;;;;;;;14.95;3.00;;;;;;;;;;6246152;23;20007;-64
2022/11/28 01:00:53;;;;;;;20.83;2.95;;;;;;;;;;6246385;23;20346;-64
2022/11/28 01:03:19;;;;;;;20.35;5.32;;;;;;;;;;6246400;23;20006;-64
2022/11/28 01:05:45;;;;;;;15.90;3.33;;;;;;;;;;6246252;23;20095;-64
2022/11/28 01:08:11;;;;;;;18.98;3.53;;;;;;;;;;6245909;23;20088;-64
2022/11/28 01:10:41;;;;;;;19.10;3.20;;;;;;;;;;6245358;23;20430;-64
2022/11/28 01:13:08;;;;;;;20.30;4.45;;;;;;;;;;6246304;23;20023;-64
2022/11/28 01:15:34;;;;;;;20.05;3.00;;;;;;;;;;6246052;23;20004;-64
2022/11/28 01:18:01;;;;;;;23.65;2.78;;;;;;;;;;6246307;23;20381;-64
2022/11/28 01:20:27;;;;;;;16.08;2.55;;;;;;;;;;6246290;22;20130;-64
2022/11/28 01:22:54;;;;;;;12.63;2.55;;;;;;;;;;6246247;23;20438;-64
2022/11/28 01:25:20;;;;;;;14.73;2.55;;;;;;;;;;6245863;23;20450;-64
2022/11/28 01:27:46;;;;;;;16.15;2.83;;;;;;;;;;6246100;23;20014;-64
2022/11/28 01:30:12;;;;;;;12.07;2.63;;;;;;;;;;6246321;23;20067;-64
2022/11/28 01:32:38;;;;;;;9.43;2.35;;;;;;;;;;6245952;23;20000;-64
2022/11/28 01:35:04;;;;;;;17.83;2.28;;;;;;;;;;6246229;23;20346;-64
2022/11/28 01:37:31;;;;;;;15.93;3.00;;;;;;;;;;6245917;23;20456;-64
2022/11/28 01:39:57;;;;;;;13.45;2.58;;;;;;;;;;6245985;23;20071;-64
2022/11/28 01:42:23;;;;;;;12.35;2.15;;;;;;;;;;6246344;23;20424;-64
2022/11/28 01:44:49;;;;;;;13.32;2.25;;;;;;;;;;6245910;23;20001;-64
2022/11/28 01:47:19;;;;;;;19.67;3.00;;;;;;;;;;6245918;23;20039;-64
2022/11/28 01:49:46;;;;;;;15.25;2.83;;;;;;;;;;6245888;23;20000;-64
2022/11/28 01:52:14;;;;;;;20.42;4.07;;;;;;;;;;6245821;23;20028;-64
2022/11/28 01:54:41;;;;;;;13.52;2.15;;;;;;;;;;6245337;23;20312;-64
2022/11/28 01:57:09;;;;;;;16.38;2.90;;;;;;;;;;6246094;23;20028;-64
2022/11/28 01:59:36;;;;;;;16.05;2.58;;;;;;;;;;6245778;23;20031;-64
2022/11/28 02:02:06;;;;;;;15.82;2.47;;;;;;;;;;6244139;23;20062;-64
2022/11/28 02:04:32;;;;;;;20.30;2.88;;;;;;;;;;6245275;23;20012;-64
2022/11/28 02:06:58;;;;;;;14.02;2.20;;;;;;;;;;6245536;23;20012;-64
2022/11/28 02:09:24;;;;;;;19.90;2.97;;;;;;;;;;6245432;23;20319;-64
2022/11/28 02:12:06;;;;;;;19.45;2.55;;;;;;;;;;6245722;23;20437;-64
2022/11/28 02:14:51;;;;;;;9.93;4.13;;;;;;;;;;6245498;23;20011;-64
2022/11/28 02:17:36;;;;;;;15.88;2.75;;;;;;;;;;6245758;23;20470;-64
2022/11/28 02:20:15;;;;;;;18.77;2.85;;;;;;;;;;6245603;23;20012;-64
2022/11/28 02:22:41;;;;;;;13.63;2.70;;;;;;;;;;6245091;23;20075;-64
2022/11/28 02:25:13;;;;;;;18.08;2.33;;;;;;;;;;6245715;23;20012;-64
2022/11/28 02:27:57;;;;;;;12.93;2.57;;;;;;;;;;6245518;23;20004;-64
2022/11/28 02:30:23;;;;;;;21.08;2.70;;;;;;;;;;6245741;23;20301;-64
2022/11/28 02:32:52;;;;;;;16.05;3.50;;;;;;;;;;6245332;23;20000;-64
2022/11/28 02:35:21;;;;;;;21.95;3.97;;;;;;;;;;6245671;23;20111;-64
2022/11/28 02:37:53;;;;;;;29.63;3.13;;;;;;;;;;6244313;23;20004;-64
2022/11/28 02:40:26;;;;;;;23.13;3.25;;;;;;;;;;6244880;23;20008;-64
2022/11/28 02:43:01;;;;;;;14.88;2.60;;;;;;;;;;6244051;23;20246;-64
2022/11/28 02:45:27;;;;;;;16.85;2.50;;;;;;;;;;6244617;23;20011;-64
2022/11/28 02:48:04;;;;;;;18.77;3.20;;;;;;;;;;6244628;23;20000;-64
2022/11/28 02:50:33;;;;;;;16.08;2.20;;;;;;;;;;6244757;23;20011;-64
2022/11/28 02:53:05;;;;;;;16.63;2.40;;;;;;;;;;6244077;23;20008;-64
2022/11/28 02:55:31;;;;;;;12.70;2.53;;;;;;;;;;6244673;22;20008;-64
2022/11/28 02:57:57;;;;;;;25.23;2.95;;;;;;;;;;6244394;23;20430;-64
2022/11/28 03:00:24;;;;;;;22.02;2.97;;;;;;;;;;6244645;23;20438;-64
2022/11/28 03:03:03;;;;;;;7.63;2.08;;;;;;;;;;6242964;23;20000;-64
2022/11/28 03:05:35;;;;;;;14.38;2.53;;;;;;;;;;6244741;23;20162;-64
2022/11/28 03:08:07;;;;;;;11.48;2.53;;;;;;;;;;6244689;23;20001;-64
2022/11/28 03:10:40;;;;;;;18.92;2.88;;;;;;;;;;6245320;23;20004;-64
2022/11/28 03:13:06;;;;;;;;;;;;;;;;;;6245924;23;20004;-64
2022/11/28 03:15:37;;;;;;;21.20;3.70;;;;;;;;;;6245457;23;20356;-64
2022/11/28 03:18:19;;;;;;;22.15;2.78;;;;;;;;;;6247289;23;20442;-64
2022/11/28 03:20:46;;;;;;;18.45;2.80;;;;;;;;;;6246677;23;20034;-64
2022/11/28 03:23:12;;;;;;;25.67;3.03;;;;;;;;;;6247553;23;20338;-64
2022/11/28 03:25:58;;;;;;;12.88;2.28;;;;;;;;;;6246933;23;20015;-64
2022/11/28 03:28:31;;;;;;;19.98;2.97;;;;;;;;;;6247445;23;20035;-64
2022/11/28 03:31:00;;;;;;;19.35;3.00;;;;;;;;;;6247000;23;20103;-64
2022/11/28 03:33:29;;;;;;;16.60;2.42;;;;;;;;;;6247654;22;20007;-64
2022/11/28 03:35:57;;;;;;;22.73;4.20;;;;;;;;;;6246533;23;20078;-64
2022/11/28 03:38:33;;;;;;;20.40;4.18;;;;;;;;;;6247274;23;20426;-64
2022/11/28 03:41:02;;;;;;;19.75;2.40;;;;;;;;;;6246984;23;20089;-64
2022/11/28 03:43:34;;;;;;;22.27;3.55;;;;;;;;;;6247060;23;20014;-64
2022/11/28 03:46:02;;;;;;;22.92;4.05;;;;;;;;;;6247110;23;20054;-64
2022/11/28 03:48:33;;;;;;;25.65;5.32;;;;;;;;;;6247207;23;20004;-64
2022/11/28 03:51:09;;;;;;;26.17;3.72;;;;;;;;;;6246163;22;20084;-64
2022/11/28 03:53:58;;;;;;;28.70;3.35;;;;;;;;;;6247004;23;20004;-64
2022/11/28 03:56:26;;;;;;;19.60;3.08;;;;;;;;;;6231971;23;20015;-64
2022/11/28 03:58:56;;;;;;;20.17;4.15;;;;;;;;;;6246754;23;20000;-64
2022/11/28 04:01:32;;;;;;;19.65;3.90;;;;;;;;;;6247222;23;20038;-64
2022/11/28 04:03:58;;;;;;;23.17;3.10;;;;;;;;;;6246542;22;20012;-64
2022/11/28 04:06:36;;;;;;;18.63;3.28;;;;;;;;;;6246605;23;20016;-64
2022/11/28 04:09:13;;;;;;;18.70;2.95;;;;;;;;;;6246853;23;20012;-64
2022/11/28 04:11:43;;;;;;;27.38;3.20;;;;;;;;;;6246983;23;20050;-64
2022/11/28 04:14:29;;;;;;;19.10;4.38;;;;;;;;;;6246677;23;20338;-64
2022/11/28 04:17:03;;;;;;;18.73;3.28;;;;;;;;;;6226066;23;20012;-64
2022/11/28 04:19:33;;;;;;;8.98;2.40;;;;;;;;;;6245757;23;20039;-65
2022/11/28 04:22:02;;;;;;;10.88;2.35;;;;;;;;;;6246407;23;20004;-65
2022/11/28 04:24:31;;;;;;;16.40;3.33;;;;;;;;;;6246443;23;20008;-65
2022/11/28 04:27:00;;;;;;;17.45;2.33;;;;;;;;;;6246200;22;20445;-65
2022/11/28 04:29:28;;;;;;;19.48;2.58;;;;;;;;;;6246545;23;20478;-64
2022/11/28 04:31:56;;;;;;;20.20;2.63;;;;;;;;;;6246199;23;20000;-64
2022/11/28 04:34:23;;;;;;;15.15;2.00;;;;;;;;;;6246522;22;20011;-64
2022/11/28 04:36:50;;;;;;;17.67;2.30;;;;;;;;;;6246756;23;20087;-65
2022/11/28 04:39:21;;;;;;;15.43;2.75;;;;;;;;;;6246578;23;20004;-65
2022/11/28 04:42:02;;;;;;;10.85;3.45;;;;;;;;;;6246354;23;20031;-65
2022/11/28 04:44:40;;;;;;;17.15;2.78;;;;;;;;;;6246411;23;20330;-65
2022/11/28 04:47:07;;;;;;;13.75;2.35;;;;;;;;;;6246298;23;20034;-65
2022/11/28 04:49:33;;;;;;;10.85;1.90;;;;;;;;;;6246463;23;20008;-65
2022/11/28 04:52:09;;;;;;;16.75;2.63;;;;;;;;;;6246086;23;20031;-64
2022/11/28 04:54:58;;;;;;;12.63;1.90;;;;;;;;;;6246368;23;20015;-64
2022/11/28 04:57:34;;;;;;;10.85;2.20;;;;;;;;;;6123974;23;20056;-64
2022/11/28 05:00:04;;;;;;;8.57;2.08;;;;;;;;;;6123966;23;20041;-70
2022/11/28 05:02:30;;;;;;;19.13;2.67;;;;;;;;;;6123840;23;20412;-65
2022/11/28 05:04:58;;;;;;;12.75;2.03;;;;;;;;;;6123189;23;20010;-65
2022/11/28 05:07:24;;;;;;;6.85;1.90;;;;;;;;;;6123437;23;20013;-65
2022/11/28 05:09:50;;;;;;;20.63;2.72;;;;;;;;;;6124110;23;20499;-65
2022/11/28 05:12:16;;;;;;;15.60;2.17;;;;;;;;;;6123531;23;20487;-65
2022/11/28 05:14:43;;;;;;;10.95;2.47;;;;;;;;;;6124005;23;20018;-65
2022/11/28 05:17:11;;;;;;;12.05;2.40;;;;;;;;;;6122895;23;20006;-65
2022/11/28 05:19:37;;;;;;;11.85;3.28;;;;;;;;;;6122708;23;20508;-65
2022/11/28 05:22:03;;;;;;;15.98;3.38;;;;;;;;;;6124041;23;20010;-66
2022/11/28 05:24:29;;;;;;;11.55;3.03;;;;;;;;;;6124105;23;20498;-65
2022/11/28 05:26:55;;;;;;;17.90;2.50;;;;;;;;;;6123977;23;20025;-65
2022/11/28 05:29:23;;;;;;;10.20;2.42;;;;;;;;;;6124005;23;20081;-65
2022/11/28 05:31:49;;;;;;;10.43;2.33;;;;;;;;;;6123315;23;20337;-65
2022/11/28 05:34:15;;;;;;;16.05;2.30;;;;;;;;;;6179575;23;20022;-65
2022/11/28 05:36:42;;;;;;;10.32;2.70;;;;;;;;;;6246266;23;20346;-65
2022/11/28 05:39:08;;;;;;;11.18;2.67;;;;;;;;;;6245292;23;20058;-65
2022/11/28 05:41:34;;;;;;;9.23;2.22;;;;;;;;;;6245931;23;20011;-65
2022/11/28 05:44:00;;;;;;;14.75;2.30;;;;;;;;;;6246089;23;20018;-65
2022/11/28 05:46:27;;;;;;;14.13;2.42;;;;;;;;;;6244494;23;20003;-65
2022/11/28 05:48:53;;;;;;;14.07;2.60;;;;;;;;;;6245550;23;20008;-65
2022/11/28 05:51:19;;;;;;;11.82;2.38;;;;;;;;;;6245276;23;19996;-65
2022/11/28 05:53:45;;;;;;;9.77;2.00;;;;;;;;;;6245220;23;20134;-65
2022/11/28 05:56:16;;;;;;;15.38;2.65;;;;;;;;;;6244329;23;20003;-65
2022/11/28 05:58:42;;;;;;;8.75;2.08;;;;;;;;;;6244635;23;20008;-65
2022/11/28 06:01:14;;;;;;;12.68;2.45;;;;;;;;;;6244228;23;20340;-65
2022/11/28 06:03:40;;;;;;;13.30;2.53;;;;;;;;;;6244700;23;20014;-65
2022/11/28 06:06:14;;;;;;;16.45;2.75;;;;;;;;;;6244104;23;20015;-65
2022/11/28 06:08:40;;;;;;;15.93;3.38;;;;;;;;;;6244571;23;20005;-65
2022/11/28 06:11:06;;;;;;;17.48;2.92;;;;;;;;;;6244462;23;20331;-65
2022/11/28 06:13:32;;;;;;;25.27;2.72;;;;;;;;;;6245513;23;20005;-65
2022/11/28 06:15:58;;;;;;;19.23;3.00;;;;;;;;;;6244027;23;20081;-65
2022/11/28 06:18:25;;;;;;;27.52;4.57;;;;;;;;;;6244055;23;20461;-65
2022/11/28 06:20:51;;;;;;;14.00;2.72;;;;;;;;;;6244578;23;20660;-65
2022/11/28 06:23:17;;;;;;;22.65;3.55;;;;;;;;;;6244296;22;20059;-65
2022/11/28 06:25:43;;;;;;;14.07;2.47;;;;;;;;;;6244338;23;20008;-65
2022/11/28 06:28:09;;;;;;;14.32;2.70;;;;;;;;;;6244249;23;20047;-65
2022/11/28 06:30:35;;;;;;;19.88;5.43;;;;;;;;;;6243956;23;20087;-65
2022/11/28 06:33:02;;;;;;;19.05;2.38;;;;;;;;;;6244413;22;20004;-66
2022/11/28 06:35:28;;;;;;;22.30;2.30;;;;;;;;;;6244121;23;20053;-65
2022/11/28 06:37:54;;;;;;;9.95;2.53;;;;;;;;;;6244238;23;20146;-65
2022/11/28 06:40:20;;;;;;;13.02;2.45;;;;;;;;;;6243901;23;20008;-65
2022/11/28 06:42:49;;;;;;;20.48;2.85;;;;;;;;;;6244235;23;20012;-65
2022/11/28 06:45:15;;;;;;;32.83;3.58;;;;;;;;;;6243606;22;20027;-65
2022/11/28 06:47:41;;;;;;;21.10;2.85;;;;;;;;;;6243456;23;20107;-65
2022/11/28 06:50:08;;;;;;;18.02;2.70;;;;;;;;;;6242454;23;20066;-65
2022/11/28 06:52:35;;;;;;;9.18;1.83;;;;;;;;;;6243493;22;20004;-65
2022/11/28 06:55:01;;;;;;;13.73;3.03;;;;;;;;;;6243072;23;20024;-66
2022/11/28 06:57:27;;;;;;;14.10;2.95;;;;;;;;;;6243216;23;20074;-66
2022/11/28 06:59:53;;;;;;;15.48;3.83;;;;;;;;;;6243581;23;20000;-65
2022/11/28 07:02:19;;;;;;;19.55;3.45;;;;;;;;;;6243027;23;20069;-65
2022/11/28 07:04:45;;;;;;;14.13;3.28;;;;;;;;;;6242724;23;20008;-65
2022/11/28 07:07:11;;;;;;;22.05;2.78;;;;;;;;;;6243807;23;20087;-65
2022/11/28 07:09:37;;;;;;;17.98;3.38;;;;;;;;;;6243014;23;20058;-65
2022/11/28 07:12:04;;;;;;;16.75;2.80;;;;;;;;;;6243458;23;20075;-65
2022/11/28 07:14:32;;;;;;;21.52;2.70;;;;;;;;;;6241739;23;20031;-65
2022/11/28 07:16:58;;;;;;;13.65;2.00;;;;;;;;;;6242924;23;20012;-65
2022/11/28 07:19:24;;;;;;;18.08;4.40;;;;;;;;;;6242982;23;20346;-65
2022/11/28 07:21:50;;;;;;;14.32;2.15;;;;;;;;;;6241048;23;20481;-65
2022/11/28 07:24:18;;;;;;;13.80;2.55;;;;;;;;;;6242328;23;20071;-65
2022/11/28 07:26:45;;;;;;;9.35;1.90;;;;;;;;;;6242005;22;20406;-65
2022/11/28 07:29:15;;;;;;;11.93;2.75;;;;;;;;;;6242237;23;20338;-65
2022/11/28 07:31:41;;;;;;;17.67;2.50;;;;;;;;;;6241881;23;20004;-65
2022/11/28 07:34:08;;;;;;;14.60;3.10;;;;;;;;;;6241207;23;20470;-65
2022/11/28 07:36:34;;;;;;;9.45;2.30;;;;;;;;;;6243234;23;20004;-66
2022/11/28 07:39:01;;;;;;;8.15;1.20;;;;;;;;;;6243577;23;20319;-65
2022/11/28 07:41:28;;;;;;;9.38;2.17;;;;;;;;;;6243051;23;20012;-65
2022/11/28 07:43:57;;;;;;;7.90;1.60;;;;;;;;;;6243061;22;20338;-66
2022/11/28 07:46:23;;;;;;;11.00;1.80;;;;;;;;;;6243935;23;20008;-66
2022/11/28 07:48:49;;;;;;;12.40;1.55;;;;;;;;;;6243310;23;20006;-65
2022/11/28 07:51:20;;;;;;;9.05;1.98;;;;;;;;;;6243214;23;20049;-66
2022/11/28 07:53:47;;;;;;;6.93;1.48;;;;;;;;;;6244396;23;20043;-65
2022/11/28 07:56:15;;;;;;;9.45;1.38;;;;;;;;;;6243974;23;20008;-65
2022/11/28 07:58:42;;;;;;;9.48;1.83;;;;;;;;;;6244192;23;20500;-65
2022/11/28 08:01:12;;;;;;;8.40;1.25;;;;;;;;;;6244687;23;20057;-65
2022/11/28 08:03:39;;;;;;;4.45;1.13;;;;;;;;;;6246011;23;20019;-65
2022/11/28 08:06:05;;;;;;;8.15;3.53;;;;;;;;;;6246031;23;20019;-65
2022/11/28 08:08:32;;;;;;;9.95;2.10;;;;;;;;;;6246162;23;20032;-65
2022/11/28 08:10:59;;;;;;;9.50;2.60;;;;;;;;;;6245877;23;20074;-66
2022/11/28 08:13:25;;;;;;;13.00;1.80;;;;;;;;;;6246267;23;20103;-65
2022/11/28 08:15:51;;;;;;;7.65;2.10;;;;;;;;;;6246494;23;19996;-66
2022/11/28 08:18:17;;;;;;;8.35;1.52;;;;;;;;;;6246433;23;20400;-65
2022/11/28 08:20:43;;;;;;;8.70;2.17;;;;;;;;;;6246010;23;20000;-65
2022/11/28 08:23:09;;;;;;;8.73;2.10;;;;;;;;;;6246386;23;20007;-65
2022/11/28 08:25:35;;;;;;;10.65;1.90;;;;;;;;;;6245402;23;20011;-65
2022/11/28 08:28:02;;;;;;;7.03;2.25;;;;;;;;;;6246177;23;20000;-65
2022/11/28 08:30:28;;;;;;;8.68;2.10;;;;;;;;;;6246062;23;19996;-65
2022/11/28 08:32:54;;;;;;;16.48;3.17;;;;;;;;;;6245911;23;20004;-65
2022/11/28 08:35:20;;;;;;;8.95;2.50;;;;;;;;;;6246039;23;20000;-65
2022/11/28 08:37:47;;;;;;;10.32;2.88;;;;;;;;;;6245781;23;20008;-65
2022/11/28 08:40:13;;;;;;;10.07;2.75;;;;;;;;;;6245555;23;20074;-65
2022/11/28 08:42:40;;;;;;;10.05;3.22;;;;;;;;;;6245812;23;20083;-65
2022/11/28 08:45:06;;;;;;;17.17;2.78;;;;;;;;;;6245897;23;20006;-65
2022/11/28 08:47:32;;;;;;;12.05;2.45;;;;;;;;;;6245739;23;20323;-65
2022/11/28 08:49:59;;;;;;;12.75;2.42;;;;;;;;;;6245954;23;20000;-65
2022/11/28 08:52:25;;;;;;;17.30;3.45;;;;;;;;;;6245860;23;20341;-65
2022/11/28 08:54:51;;;;;;;6.63;3.15;;;;;;;;;;6245215;23;20004;-65
2022/11/28 08:57:17;;;;;;;17.30;3.45;;;;;;;;;;6244285;23;20395;-65
2022/11/28 08:59:43;;;;;;;13.77;3.92;;;;;;;;;;6245439;23;20034;-65
2022/11/28 09:02:11;;;;;;;8.38;2.20;;;;;;;;;;6245850;23;20012;-65
2022/11/28 09:04:37;;;;;;;21.20;3.10;;;;;;;;;;6245174;22;20094;-65
2022/11/28 09:07:04;;;;;;;17.73;2.25;;;;;;;;;;6245566;23;20023;-65
2022/11/28 09:09:30;;;;;;;11.40;3.17;;;;;;;;;;6245205;23;20028;-65
2022/11/28 09:11:56;;;;;;;10.98;2.50;;;;;;;;;;6245734;23;20004;-65
2022/11/28 09:14:22;;;;;;;16.80;3.42;;;;;;;;;;6244866;23;20153;-65
2022/11/28 09:16:49;;;;;;;15.40;3.03;;;;;;;;;;6245328;23;20036;-65
2022/11/28 09:19:15;;;;;;;17.08;2.70;;;;;;;;;;6245799;22;20004;-65
2022/11/28 09:21:41;;;;;;;13.35;2.58;;;;;;;;;;6245276;23;20071;-65
2022/11/28 09:24:08;;;;;;;13.10;2.55;;;;;;;;;;6244956;23;20062;-65
2022/11/28 09:26:34;;;;;;;13.98;2.22;;;;;;;;;;6245769;22;20312;-65
2022/11/28 09:29:00;;;;;;;15.95;3.58;;;;;;;;;;6245293;23;20000;-65
2022/11/28 09:31:26;;;;;;;23.85;2.58;;;;;;;;;;6245461;23;20000;-65
2022/11/28 09:33:53;;;;;;;15.77;2.80;;;;;;;;;;6245215;23;20012;-65
2022/11/28 09:36:20;;;;;;;9.55;2.53;;;;;;;;;;6245524;23;20027;-65
2022/11/28 09:38:46;;;;;;;8.68;1.80;;;;;;;;;;6244614;23;20083;-65
2022/11/28 09:41:28;;;;;;;14.02;2.42;;;;;;;;;;6245367;23;20012;-65
2022/11/28 09:43:58;;;;;;;16.45;1.88;;;;;;;;;;6245266;23;20434;-65
2022/11/28 09:46:27;;;;;;;7.00;1.83;;;;;;;;;;6245368;23;20004;-65
2022/11/28 09:48:55;;;;;;;12.45;1.90;;;;;;;;;;6245008;23;20007;-65
2022/11/28 09:51:24;;;;;;;11.63;1.80;;;;;;;;;;6245499;23;20001;-66
2022/11/28 09:54:06;;;;;;;5.25;1.30;;;;;;;;;;6244516;23;20014;-66
2022/11/28 09:56:32;;;;;;;8.23;2.13;;;;;;;;;;6245403;23;20489;-65
2022/11/28 09:59:02;;;;;;;9.60;2.92;;;;;;;;;;6244829;23;20071;-66
2022/11/28 10:01:46;;;;;;;8.73;1.58;;;;;;;;;;6245239;22;20015;-66
2022/11/28 10:04:18;;;;;;;20.42;1.73;;;;;;;;;;6245039;23;20018;-65
2022/11/28 10:07:03;;;;;;;14.30;3.80;;;;;;;;;;6244311;23;20070;-66
2022/11/28 10:09:46;;;;;;;15.52;1.90;;;;;;;;;;6245207;23;20005;-66
2022/11/28 10:12:18;;;;;;;10.68;1.88;;;;;;;;;;6245153;23;20381;-66
2022/11/28 10:14:54;;;;;;;12.45;2.05;;;;;;;;;;6243390;23;20030;-66
2022/11/28 10:17:28;;;;;;;10.90;3.42;;;;;;;;;;6245262;22;20012;-66
2022/11/28 10:19:58;;;;;;;7.35;1.90;;;;;;;;;;6244989;23;20035;-65
2022/11/28 10:22:47;;;;;;;10.13;1.63;;;;;;;;;;6244743;23;20015;-66
2022/11/28 10:25:28;;;;;;;3.40;1.20;;;;;;;;;;6229559;23;20016;-66
2022/11/28 10:27:55;;;;;;;9.23;1.98;;;;;;;;;;6244807;23;20402;-65
2022/11/28 10:30:23;;;;;;;7.22;1.50;;;;;;;;;;6245092;22;20004;-65
2022/11/28 10:32:54;;;;;;;10.35;1.60;;;;;;;;;;6244829;23;20007;-66
2022/11/28 10:35:20;;;;;;;6.13;1.67;;;;;;;;;;6244999;23;20042;-65
2022/11/28 10:37:47;;;;;;;8.77;2.08;;;;;;;;;;6244616;23;20062;-66
2022/11/28 10:40:31;;;;;;;12.07;1.35;;;;;;;;;;6244672;23;20472;-65
2022/11/28 10:43:02;;;;;;;9.88;1.85;;;;;;;;;;6244602;23;20008;-65
2022/11/28 10:45:29;;;;;;;8.35;1.63;;;;;;;;;;6244797;23;20335;-65
2022/11/28 10:48:17;;;;;;;6.53;2.17;;;;;;;;;;6244603;23;20067;-65
2022/11/28 10:50:43;;;;;;;5.70;1.25;;;;;;;;;;6244499;23;20089;-65
2022/11/28 10:53:28;;;;;;;6.93;1.50;;;;;;;;;;6244633;23;19997;-65
2022/11/28 10:56:03;;;;;;;6.20;1.20;;;;;;;;;;6243485;23;20342;-65
2022/11/28 10:58:29;;;;;;;10.02;1.80;;;;;;;;;;6244874;23;20012;-65
2022/11/28 11:00:57;;;;;;;13.50;1.80;;;;;;;;;;6244383;23;20014;-65
2022/11/28 11:03:34;;;;;;;19.25;1.92;;;;;;;;;;6244846;23;20082;-65
2022/11/28 11:06:01;;;;;;;11.73;2.25;;;;;;;;;;6243776;22;20012;-65
2022/11/28 11:08:28;;;;;;;9.48;1.42;;;;;;;;;;6244788;23;20039;-65
2022/11/28 11:11:01;;;;;;;8.55;1.98;;;;;;;;;;6242880;23;20323;-65
2022/11/28 11:13:28;;;;;;;12.73;1.92;;;;;;;;;;6244566;23;20008;-65
2022/11/28 11:15:59;;;;;;;13.38;2.97;;;;;;;;;;6244333;23;20087;-65
2022/11/28 11:18:27;;;;;;;13.52;2.42;;;;;;;;;;6244745;22;20015;-65
2022/11/28 11:21:06;;;;;;;16.02;3.75;;;;;;;;;;6244168;23;20008;-65
2022/11/28 11:23:32;;;;;;;16.17;2.45;;;;;;;;;;6244175;23;20058;-65
2022/11/28 11:25:58;;;;;;;15.43;2.67;;;;;;;;;;6244026;23;20020;-65
2022/11/28 11:28:27;;;;;;;13.85;3.47;;;;;;;;;;6244726;23;20319;-65
2022/11/28 11:31:23;;;;;;;18.02;1.92;;;;;;;;;;6244419;23;20079;-65
2022/11/28 11:34:03;;;;;;;15.00;3.33;;;;;;;;;;6218545;22;20011;-65
2022/11/28 11:36:34;;;;;;;13.13;2.40;;;;;;;;;;6245044;23;20032;-65
2022/11/28 11:39:07;;;;;;;17.85;2.75;;;;;;;;;;6246315;22;20011;-65
2022/11/28 11:41:34;;;;;;;15.90;2.05;;;;;;;;;;6246503;23;20000;-65
2022/11/28 11:44:15;;;;;;;12.50;2.60;;;;;;;;;;6246217;23;20005;-65
2022/11/28 11:46:51;;;;;;;13.18;1.98;;;;;;;;;;6246575;23;20005;-65
2022/11/28 11:49:29;;;;;;;9.15;1.33;;;;;;;;;;6246149;23;20450;-65
2022/11/28 11:51:59;;;;;;;9.05;1.80;;;;;;;;;;6246426;23;20011;-65
2022/11/28 11:54:25;;;;;;;16.98;1.73;;;;;;;;;;6246608;23;20012;-65
2022/11/28 11:56:52;;;;;;;7.88;1.63;;;;;;;;;;6246167;23;20125;-65
2022/11/28 11:59:20;;;;;;;13.75;3.00;;;;;;;;;;6246469;23;20015;-65
2022/11/28 12:01:49;;;;;;;20.20;2.78;;;;;;;;;;6246529;23;20444;-65
2022/11/28 12:04:17;;;;;;;17.35;2.28;;;;;;;;;;6245784;23;20434;-65
2022/11/28 12:06:47;;;;;;;15.68;2.35;;;;;;;;;;6246056;23;20083;-65
2022/11/28 12:09:24;;;;;;;15.35;3.13;;;;;;;;;;6246504;23;20000;-65
2022/11/28 12:11:54;;;;;;;16.50;2.80;;;;;;;;;;6246359;23;20513;-65
2022/11/28 12:14:28;;;;;;;25.63;5.10;;;;;;;;;;6245977;23;20061;-65
2022/11/28 12:16:54;;;;;;;19.75;3.22;;;;;;;;;;6244576;23;20079;-65
2022/11/28 12:19:20;;;;;;;24.85;3.35;;;;;;;;;;6244179;23;20019;-65
2022/11/28 12:21:52;;;;;;;20.88;2.78;;;;;;;;;;6242359;23;20015;-65
2022/11/28 12:24:22;;;;;;;16.37;3.57;;;;;;;;;;6244183;23;20046;-66
2022/11/28 12:27:11;;;;;;;20.35;4.00;;;;;;;;;;6244405;23;20008;-65
2022/11/28 12:29:43;;;;;;;16.38;3.65;;;;;;;;;;6243895;22;20009;-65
2022/11/28 12:32:24;;;;;;;24.45;3.13;;;;;;;;;;6243738;23;20092;-65
2022/11/28 12:34:56;;;;;;;20.33;3.70;;;;;;;;;;6244178;23;20015;-66
2022/11/28 12:37:26;;;;;;;20.35;4.30;;;;;;;;;;6244356;23;20012;-65
2022/11/28 12:40:04;;;;;;;17.05;3.17;;;;;;;;;;6244445;23;20023;-65
2022/11/28 12:42:41;;;;;;;28.75;4.10;;;;;;;;;;6244225;23;20061;-65
2022/11/28 12:45:17;;;;;;;21.48;4.47;;;;;;;;;;6243875;23;20008;-65
2022/11/28 12:47:50;;;;;;;24.65;3.58;;;;;;;;;;6243898;23;20505;-65
2022/11/28 12:50:30;;;;;;;24.27;4.13;;;;;;;;;;6244260;23;20008;-65
2022/11/28 12:53:15;;;;;;;25.58;4.28;;;;;;;;;;6244538;23;20004;-65
2022/11/28 12:55:41;;;;;;;22.45;4.07;;;;;;;;;;6245304;23;20079;-65
2022/11/28 12:58:15;;;;;;;26.33;4.60;;;;;;;;;;6245217;23;20004;-65
2022/11/28 13:01:12;;;;;;;21.17;3.28;;;;;;;;;;6245121;23;20004;-65
2022/11/28 13:03:50;;;;;;;21.60;4.45;;;;;;;;;;6123074;23;20018;-65
2022/11/28 13:06:16;;;;;;;30.38;5.20;;;;;;;;;;6122578;23;20041;-65
2022/11/28 13:08:58;;;;;;;32.08;3.88;;;;;;;;;;6123163;23;20010;-65
2022/11/28 13:11:36;;;;;;;23.45;4.40;;;;;;;;;;6123135;23;20539;-65
2022/11/28 13:14:21;;;;;;;26.10;3.40;;;;;;;;;;6122996;23;20018;-65
2022/11/28 13:16:49;;;;;;;20.75;3.25;;;;;;;;;;6122483;23;20021;-65
2022/11/28 13:19:33;;;;;;;31.38;4.82;;;;;;;;;;6122989;23;20406;-65
2022/11/28 13:22:11;;;;;;;29.10;3.60;;;;;;;;;;6123144;23;20145;-65
2022/11/28 13:24:49;;;;;;;19.67;3.15;;;;;;;;;;6122839;23;20018;-65
2022/11/28 13:27:23;;;;;;;19.75;2.97;;;;;;;;;;6122765;23;20455;-65
2022/11/28 13:29:57;;;;;;;35.20;7.03;;;;;;;;;;6122573;23;20089;-65
2022/11/28 13:32:28;;;;;;;20.15;4.00;;;;;;;;;;6123014;23;20479;-65
2022/11/28 13:34:55;;;;;;;34.05;5.80;;;;;;;;;;6122979;23;20013;-65
2022/11/28 13:37:34;;;;;;;22.05;3.78;;;;;;;;;;6122853;23;20436;-65
2022/11/28 13:40:13;;;;;;;21.23;3.40;;;;;;;;;;6184871;23;20090;-65
2022/11/28 13:42:51;;;;;;;19.90;4.03;;;;;;;;;;6244763;23;20489;-65
2022/11/28 13:45:23;;;;;;;21.95;3.70;;;;;;;;;;6244697;23;20338;-65
2022/11/28 13:47:49;;;;;;;16.60;2.95;;;;;;;;;;6245153;23;20000;-65
2022/11/28 13:50:24;;;;;;;27.08;4.82;;;;;;;;;;6244940;23;20028;-65
2022/11/28 13:53:05;;;;;;;17.30;3.75;;;;;;;;;;6244962;23;20000;-65
2022/11/28 13:55:48;;;;;;;31.88;3.55;;;;;;;;;;6244776;23;20087;-65
2022/11/28 13:58:23;;;;;;;28.08;3.75;;;;;;;;;;6244678;23;20004;-65
2022/11/28 14:01:04;;;;;;;14.38;2.63;;;;;;;;;;6244381;23;20015;-65
2022/11/28 14:03:31;;;;;;;21.98;3.40;;;;;;;;;;6244270;23;20039;-65
2022/11/28 14:05:59;;;;;;;20.58;3.53;;;;;;;;;;6244499;23;20008;-65
2022/11/28 14:08:27;;;;;;;16.30;2.70;;;;;;;;;;6244715;23;20000;-65
2022/11/28 14:11:22;;;;;;;23.90;3.47;;;;;;;;;;6244850;23;20008;-65
2022/11/28 14:13:56;;;;;;;25.85;4.80;;;;;;;;;;6219192;22;20521;-65
2022/11/28 14:16:41;;;;;;;26.42;4.07;;;;;;;;;;6244453;23;20429;-65
2022/11/28 14:19:19;;;;;;;26.15;4.50;;;;;;;;;;6244774;23;19996;-65
2022/11/28 14:21:53;;;;;;;20.70;3.83;;;;;;;;;;6244720;23;20011;-65
2022/11/28 14:24:22;;;;;;;26.67;5.88;;;;;;;;;;6244313;23;20012;-65
2022/11/28 14:26:56;;;;;;;25.98;5.10;;;;;;;;;;6243062;23;20011;-65
2022/11/28 14:29:24;;;;;;;26.33;3.97;;;;;;;;;;6242409;23;20025;-65
2022/11/28 14:31:55;;;;;;;28.33;5.10;;;;;;;;;;6243082;23;20346;-65
2022/11/28 14:34:44;;;;;;;28.73;6.15;;;;;;;;;;6244833;22;20004;-65
2022/11/28 14:37:20;;;;;;;27.50;3.72;;;;;;;;;;6242910;23;20008;-65
2022/11/28 14:39:51;;;;;;;31.52;5.28;;;;;;;;;;6243062;23;20138;-65
2022/11/28 14:42:17;;;;;;;36.97;5.43;;;;;;;;;;6242194;23;20034;-65
2022/11/28 14:44:55;;;;;;;31.42;5.22;;;;;;;;;;6244785;22;20083;-65
2022/11/28 14:47:30;;;;;;;27.20;3.92;;;;;;;;;;6244210;22;20023;-65
2022/11/28 14:50:00;;;;;;;15.35;2.42;;;;;;;;;;6243122;23;20450;-65
2022/11/28 14:52:27;;;;;;;15.32;3.05;;;;;;;;;;6243592;23;20319;-65